.
WxDataArchive / Data Records for 2013-10-08
2013-10-07 October 2013 2013-10-09

Data Records for Tuesday, 08 October 2013

Time	Temp	Chill	HIndex	Humid	Dewpt	 Wind 	HiWind	WindDir	Rain 	Barom 
-----	----	-----	------	-----	-----	------	------	-------	-----	----- 
00:00	43.8	43.8	43.8	92	41.6	0	0	---	0.00	30.145 
00:05	43.6	43.6	43.6	92	41.4	0	0	---	0.00	30.145 
00:10	43.5	43.5	43.5	92	41.3	0	0	---	0.00	30.145 
00:15	43.3	43.3	43.3	92	41.1	0	0	---	0.00	30.146 
00:20	43.3	43.3	43.3	92	41.1	0	0	---	0.00	30.146 
00:25	43.2	43.2	43.2	92	41.0	0	0	---	0.00	30.146 
00:30	43.2	43.2	43.2	92	41.0	0	0	---	0.00	30.148 
00:35	43.1	43.1	43.1	92	40.9	0	0	---	0.00	30.148 
00:40	42.9	42.9	42.9	92	40.7	0	0	---	0.00	30.148 
00:45	42.9	42.9	42.9	92	40.7	0	0	---	0.00	30.150 
00:50	42.9	42.9	42.9	92	40.7	0	0	---	0.00	30.150 
00:55	42.9	42.9	42.9	93	41.0	0	0	---	0.00	30.150 
01:00	42.9	42.9	42.9	93	41.0	0	0	---	0.00	30.152 
01:05	42.8	42.8	42.8	93	40.9	0	0	---	0.00	30.152 
01:10	42.8	42.8	42.8	93	40.9	0	0	---	0.00	30.152 
01:15	42.8	42.8	42.8	93	40.9	0	0	---	0.00	30.150 
01:20	42.8	42.8	42.8	93	40.9	0	0	---	0.00	30.150 
01:25	42.8	42.8	42.8	93	40.9	0	0	---	0.00	30.150 
01:30	42.9	42.9	42.9	93	41.0	0	0	---	0.00	30.148 
01:35	42.9	42.9	42.9	93	41.0	0	0	---	0.00	30.148 
01:40	42.9	42.9	42.9	93	41.0	0	0	---	0.00	30.148 
01:45	42.8	42.8	42.8	93	40.9	0	0	---	0.00	30.156 
01:50	42.8	42.8	42.8	93	40.9	0	0	---	0.00	30.156 
01:55	42.6	42.6	42.6	93	40.7	0	0	---	0.00	30.156 
02:00	42.6	42.6	42.6	94	41.0	0	0	---	0.00	30.162 
02:05	42.6	42.6	42.6	94	41.0	0	0	---	0.00	30.162 
02:10	42.6	42.6	42.6	94	41.0	0	0	---	0.00	30.162 
02:15	42.5	42.5	42.5	94	40.9	0	0	---	0.00	30.163 
02:20	42.5	42.5	42.5	94	40.9	0	0	---	0.00	30.163 
02:25	42.3	42.3	42.3	94	40.7	0	0	---	0.00	30.163 
02:30	42.3	42.3	42.3	94	40.7	0	0	---	0.00	30.174 
02:35	42.2	42.2	42.2	94	40.6	0	0	---	0.00	30.174 
02:40	42.3	42.3	42.3	94	40.7	0	0	---	0.00	30.174 
02:45	42.5	42.5	42.5	94	40.9	0	0	---	0.00	30.177 
02:50	42.6	42.6	42.6	94	41.0	0	0	---	0.00	30.177 
02:55	42.6	42.6	42.6	94	41.0	0	0	---	0.00	30.177 
03:00	42.6	42.6	42.6	94	41.0	0	0	---	0.00	30.178 
03:05	42.5	42.5	42.5	94	40.9	0	0	---	0.00	30.178 
03:10	42.5	42.5	42.5	94	40.9	0	0	---	0.00	30.178 
03:15	42.3	42.3	42.3	94	40.7	0	0	---	0.00	30.181 
03:20	42.3	42.3	42.3	94	40.7	0	0	---	0.00	30.181 
03:25	42.3	42.3	42.3	94	40.7	0	0	---	0.00	30.181 
03:30	42.3	42.3	42.3	94	40.7	0	0	---	0.00	30.180 
03:35	42.3	42.3	42.3	94	40.7	0	0	---	0.00	30.180 
03:40	42.3	42.3	42.3	94	40.7	0	0	---	0.00	30.180 
03:45	42.3	42.3	42.3	94	40.7	0	0	---	0.00	30.180 
03:50	42.3	42.3	42.3	94	40.7	0	0	---	0.00	30.180 
03:55	42.2	42.2	42.2	94	40.6	0	0	---	0.00	30.180 
04:00	42.1	42.1	42.1	94	40.5	0	0	---	0.00	30.181 
04:05	41.9	41.9	41.9	94	40.3	0	0	---	0.00	30.181 
04:10	41.9	41.9	41.9	94	40.3	0	0	---	0.00	30.181 
04:15	41.8	41.8	41.8	94	40.2	0	0	---	0.00	30.179 
04:20	41.8	41.8	41.8	94	40.2	0	0	---	0.00	30.179 
04:25	41.6	41.6	41.6	94	40.0	0	0	---	0.00	30.179 
04:30	41.6	41.6	41.6	94	40.0	0	0	---	0.00	30.179 
04:35	41.5	41.5	41.5	94	39.9	0	0	---	0.00	30.179 
04:40	41.3	41.3	41.3	94	39.7	0	0	---	0.00	30.179 
04:45	41.3	41.3	41.3	94	39.7	0	0	---	0.00	30.182 
04:50	41.3	41.3	41.3	94	39.7	0	0	---	0.00	30.182 
04:55	41.3	41.3	41.3	94	39.7	0	0	---	0.00	30.182 
05:00	41.3	41.3	41.3	94	39.7	0	0	---	0.00	30.183 
05:05	41.2	41.2	41.2	94	39.6	0	0	---	0.00	30.183 
05:10	41.2	41.2	41.2	94	39.6	0	0	---	0.00	30.183 
05:15	41.2	41.2	41.2	94	39.6	0	0	---	0.00	30.187 
05:20	41.2	41.2	41.2	94	39.6	0	0	---	0.00	30.187 
05:25	41.1	41.1	41.1	94	39.5	0	0	---	0.00	30.187 
05:30	41.1	41.1	41.1	94	39.5	0	0	---	0.00	30.190 
05:35	40.9	40.9	40.9	94	39.3	0	0	---	0.00	30.190 
05:40	40.8	40.8	40.8	94	39.2	0	0	---	0.00	30.190 
05:45	40.8	40.8	40.8	94	39.2	0	0	---	0.00	30.195 
05:50	40.8	40.8	40.8	95	39.5	0	0	---	0.00	30.195 
05:55	40.8	40.8	40.8	95	39.5	0	0	---	0.00	30.195 
06:00	40.8	40.8	40.8	95	39.5	0	0	---	0.00	30.196 
06:05	40.6	40.6	40.6	95	39.3	0	0	---	0.00	30.196 
06:10	40.6	40.6	40.6	95	39.3	0	0	---	0.00	30.196 
06:15	40.6	40.6	40.6	95	39.3	0	0	---	0.00	30.196 
06:20	40.5	40.5	40.5	95	39.2	0	0	---	0.00	30.196 
06:25	40.5	40.5	40.5	95	39.2	0	0	---	0.00	30.196 
06:30	40.5	40.5	40.5	95	39.2	0	0	---	0.00	30.201 
06:35	40.3	40.3	40.3	95	39.0	0	0	---	0.00	30.201 
06:40	40.3	40.3	40.3	95	39.0	0	0	---	0.00	30.201 
06:45	40.3	40.3	40.3	95	39.0	0	0	---	0.00	30.211 
06:50	40.3	40.3	40.3	95	39.0	0	0	---	0.00	30.211 
06:55	40.3	40.3	40.3	95	39.0	0	0	---	0.00	30.211 
07:00	40.3	40.3	40.3	95	39.0	0	0	---	0.00	30.212 
07:05	40.3	40.3	40.3	95	39.0	0	0	---	0.00	30.212 
07:10	40.3	40.3	40.3	95	39.0	0	0	---	0.00	30.212 
07:15	40.2	40.2	40.2	95	38.9	0	0	---	0.00	30.218 
07:20	40.2	40.2	40.2	95	38.9	0	0	---	0.00	30.218 
07:25	40.1	40.1	40.1	95	38.8	0	0	---	0.00	30.218 
07:30	40.1	40.1	40.1	95	38.8	0	0	---	0.00	30.222 
07:35	40.1	40.1	40.1	95	38.8	0	0	---	0.00	30.222 
07:40	40.1	40.1	40.1	95	38.8	0	0	---	0.00	30.222 
07:45	40.1	40.1	40.1	95	38.8	0	0	---	0.00	30.229 
07:50	40.1	40.1	40.1	95	38.8	0	0	---	0.00	30.229 
07:55	40.1	40.1	40.1	95	38.8	0	0	---	0.00	30.229 
08:00	39.9	39.9	39.9	95	38.6	0	0	---	0.00	30.235 
08:05	39.9	39.9	39.9	95	38.6	0	0	---	0.00	30.235 
08:10	39.9	39.9	39.9	95	38.6	0	0	---	0.00	30.235 
08:15	39.9	39.9	39.9	95	38.6	0	0	---	0.00	30.247 
08:20	40.2	40.2	40.2	95	38.9	0	0	---	0.00	30.247 
08:25	40.3	40.3	40.3	95	39.0	0	0	---	0.00	30.247 
08:30	40.6	40.6	40.6	95	39.3	0	0	---	0.00	30.251 
08:35	40.9	40.9	40.9	95	39.6	0	0	---	0.00	30.251 
08:40	41.3	41.3	41.3	95	40.0	0	0	---	0.00	30.251 
08:45	41.6	41.6	41.6	96	40.5	0	0	---	0.00	30.253 
08:50	42.1	42.1	42.1	96	41.0	0	0	---	0.00	30.253 
08:55	42.6	42.6	42.6	96	41.5	0	0	---	0.00	30.253 
09:00	43.2	43.2	43.2	96	42.1	0	0	---	0.00	30.260 
09:05	43.8	43.8	43.8	96	42.7	0	0	---	0.00	30.260 
09:10	44.3	44.3	44.3	96	43.2	0	0	---	0.00	30.260 
09:15	45.1	45.1	45.1	96	44.0	0	0	---	0.00	30.261 
09:20	45.7	45.7	45.7	96	44.6	0	0	---	0.00	30.261 
09:25	46.4	46.4	46.4	96	45.3	0	0	---	0.00	30.261 
09:30	47.0	47.0	47.0	96	45.9	0	1	270	0.00	30.262 
09:35	47.6	47.6	47.6	96	46.5	0	1	270	0.00	30.262 
09:40	48.0	48.0	48.0	96	46.9	0	1	270	0.00	30.262 
09:45	48.5	48.5	48.5	96	47.4	0	0	---	0.00	30.265 
09:50	49.1	49.1	49.1	96	48.0	0	1	270	0.00	30.265 
09:55	49.8	49.8	49.8	96	48.7	0	1	270	0.00	30.265 
10:00	50.1	50.1	50.1	96	49.0	0	1	270	0.00	30.262 
10:05	50.7	50.7	50.7	96	49.6	0	1	270	0.00	30.262 
10:10	51.4	51.4	51.4	96	50.3	0	1	270	0.00	30.262 
10:15	52.3	52.3	52.3	96	51.2	0	0	---	0.00	30.263 
10:20	53.3	53.3	53.3	95	51.9	0	1	270	0.00	30.263 
10:25	54.8	54.8	54.8	93	52.8	0	1	270	0.00	30.263 
10:30	56.3	56.3	56.3	90	53.4	0	0	---	0.00	30.259 
10:35	57.5	57.5	57.5	86	53.3	0	0	---	0.00	30.259 
10:40	58.4	58.4	58.4	81	52.6	0	0	---	0.00	30.259 
10:45	59.3	59.3	59.3	77	52.1	0	0	---	0.00	30.256 
10:50	60.4	60.4	60.4	74	52.1	0	0	---	0.00	30.256 
10:55	61.3	61.3	61.3	71	51.8	0	0	---	0.00	30.256 
11:00	62.1	62.1	62.1	68	51.4	0	0	---	0.00	30.257 
11:05	62.6	62.6	62.6	66	51.1	0	0	---	0.00	30.257 
11:10	63.1	63.1	63.1	65	51.1	0	0	---	0.00	30.257 
11:15	63.4	63.4	63.4	62	50.1	0	0	---	0.00	30.258 
11:20	63.7	63.7	63.7	60	49.5	0	0	---	0.00	30.258 
11:25	63.9	63.9	63.9	59	49.3	0	0	---	0.00	30.258 
11:30	64.3	64.3	64.3	55	47.8	0	0	---	0.00	30.252 
11:35	64.8	64.8	64.8	51	46.2	0	2	112	0.00	30.252 
11:40	65.5	65.5	65.5	50	46.4	0	0	---	0.00	30.252 
11:45	66.0	66.0	66.0	49	46.3	0	2	112	0.00	30.251 
11:50	65.8	65.8	65.8	48	45.6	0	3	90	0.00	30.251 
11:55	66.0	66.0	66.0	48	45.7	0	2	90	0.00	30.251 
12:00	66.1	66.1	66.1	47	45.3	0	4	90	0.00	30.252 
12:05	66.1	66.1	66.1	46	44.7	1	4	90	0.00	30.252 
12:10	66.3	66.3	66.3	49	46.6	0	3	338	0.00	30.252 
12:15	66.6	66.6	66.6	46	45.2	1	3	90	0.00	30.250 
12:20	66.9	66.9	66.9	47	46.0	0	3	90	0.00	30.250 
12:25	67.1	67.1	67.1	49	47.3	0	1	22	0.00	30.250 
12:30	67.1	67.1	67.1	47	46.2	0	1	338	0.00	30.248 
12:35	67.4	67.4	67.4	47	46.5	0	2	338	0.00	30.248 
12:40	67.6	67.6	67.6	46	46.1	0	2	338	0.00	30.248 
12:45	67.8	67.8	67.8	43	44.5	1	3	90	0.00	30.248 
12:50	67.8	67.8	67.8	42	43.9	1	3	135	0.00	30.248 
12:55	68.1	68.1	68.1	45	45.9	0	2	270	0.00	30.248 
13:00	67.9	67.9	67.9	43	44.6	1	4	90	0.00	30.246 
13:05	67.8	67.8	67.8	43	44.5	1	2	90	0.00	30.246 
13:10	68.1	68.1	68.1	46	46.5	0	3	90	0.00	30.246 
13:15	68.1	68.1	68.1	44	45.4	0	2	338	0.00	30.241 
13:20	68.1	68.1	68.1	44	45.4	0	2	248	0.00	30.241 
13:25	68.1	68.1	68.1	42	44.1	1	4	248	0.00	30.241 
13:30	68.4	68.4	68.4	45	46.2	1	3	112	0.00	30.233 
13:35	68.3	68.3	68.3	44	45.5	1	4	112	0.00	30.233 
13:40	67.9	67.9	67.9	45	45.8	1	3	112	0.00	30.233 
13:45	68.3	68.3	68.3	43	44.9	0	2	112	0.00	30.229 
13:50	68.4	68.4	68.4	44	45.6	0	2	112	0.00	30.229 
13:55	68.8	68.8	68.8	43	45.4	0	2	112	0.00	30.229 
14:00	68.9	68.9	68.9	43	45.5	0	3	112	0.00	30.220 
14:05	69.1	69.1	69.1	41	44.4	1	4	112	0.00	30.220 
14:10	68.9	68.9	68.9	43	45.5	1	3	112	0.00	30.220 
14:15	68.8	68.8	68.8	46	47.2	1	2	112	0.00	30.216 
14:20	68.8	68.8	68.8	46	47.2	1	2	112	0.00	30.216 
14:25	68.9	68.9	68.9	42	44.9	1	3	112	0.00	30.216 
14:30	68.9	68.9	68.9	46	47.3	1	3	112	0.00	30.211 
14:35	69.1	69.1	69.1	46	47.4	0	2	112	0.00	30.211 
14:40	69.3	69.3	69.3	43	45.8	1	2	112	0.00	30.211 
14:45	69.3	69.3	69.3	43	45.8	1	3	90	0.00	30.202 
14:50	69.4	69.4	69.4	43	45.9	0	2	90	0.00	30.202 
14:55	69.6	69.6	69.6	43	46.1	1	3	90	0.00	30.202 
15:00	69.9	69.9	69.9	42	45.8	0	1	90	0.00	30.201 
15:05	69.8	69.8	69.8	45	47.5	2	6	90	0.00	30.201 
15:10	69.4	69.4	69.4	42	45.3	0	2	90	0.00	30.201 
15:15	69.3	69.3	69.3	43	45.8	1	4	90	0.00	30.203 
15:20	69.3	69.3	69.3	44	46.4	0	2	90	0.00	30.203 
15:25	69.4	69.4	69.4	43	45.9	0	3	90	0.00	30.203 
15:30	69.4	69.4	69.4	43	45.9	2	5	90	0.00	30.200 
15:35	69.6	69.6	69.6	44	46.7	0	3	90	0.00	30.200 
15:40	69.6	69.6	69.6	42	45.5	0	3	90	0.00	30.200 
15:45	69.6	69.6	69.6	43	46.1	0	2	90	0.00	30.198 
15:50	69.9	69.9	69.9	42	45.8	0	1	90	0.00	30.198 
15:55	70.1	70.1	70.1	42	45.9	0	2	90	0.00	30.198 
16:00	70.1	70.1	70.1	41	45.3	1	2	90	0.00	30.197 
16:05	70.1	70.1	70.1	42	45.9	0	2	90	0.00	30.197 
16:10	69.9	69.9	69.9	41	45.1	1	4	90	0.00	30.197 
16:15	69.6	69.6	69.6	43	46.1	0	2	90	0.00	30.199 
16:20	69.6	69.6	69.6	41	44.8	0	3	90	0.00	30.199 
16:25	69.4	69.4	69.4	43	45.9	2	5	90	0.00	30.199 
16:30	69.3	69.3	69.3	42	45.2	1	4	90	0.00	30.200 
16:35	69.1	69.1	69.1	43	45.7	0	3	90	0.00	30.200 
16:40	68.9	68.9	68.9	43	45.5	0	2	90	0.00	30.200 
16:45	68.9	68.9	68.9	42	44.9	0	3	135	0.00	30.199 
16:50	69.1	69.1	69.1	41	44.4	1	3	90	0.00	30.199 
16:55	69.1	69.1	69.1	41	44.4	0	2	90	0.00	30.199 
17:00	69.1	69.1	69.1	41	44.4	1	3	90	0.00	30.199 
17:05	68.9	68.9	68.9	42	44.9	1	6	90	0.00	30.199 
17:10	68.9	68.9	68.9	42	44.9	2	5	90	0.00	30.199 
17:15	68.8	68.8	68.8	41	44.1	2	4	90	0.00	30.199 
17:20	68.6	68.6	68.6	42	44.6	0	2	112	0.00	30.199 
17:25	68.4	68.4	68.4	42	44.4	1	3	158	0.00	30.199 
17:30	68.4	68.4	68.4	40	43.1	1	3	135	0.00	30.201 
17:35	68.4	68.4	68.4	40	43.1	0	2	112	0.00	30.201 
17:40	68.4	68.4	68.4	41	43.8	1	4	68	0.00	30.201 
17:45	68.3	68.3	68.3	42	44.3	0	1	68	0.00	30.203 
17:50	68.3	68.3	68.3	41	43.7	0	2	68	0.00	30.203 
17:55	68.1	68.1	68.1	42	44.1	1	4	68	0.00	30.203 
18:00	67.9	67.9	67.9	41	43.3	1	4	68	0.00	30.205 
18:05	67.9	67.9	67.9	42	44.0	1	3	68	0.00	30.205 
18:10	67.8	67.8	67.8	42	43.9	0	2	68	0.00	30.205 
18:15	67.6	67.6	67.6	43	44.3	0	1	68	0.00	30.206 
18:20	67.4	67.4	67.4	43	44.1	0	1	68	0.00	30.206 
18:25	67.3	67.3	67.3	45	45.2	1	3	68	0.00	30.206 
18:30	66.9	66.9	66.9	44	44.3	1	3	112	0.00	30.208 
18:35	66.8	66.8	66.8	45	44.8	0	1	112	0.00	30.208 
18:40	66.4	66.4	66.4	45	44.4	0	3	112	0.00	30.208 
18:45	66.3	66.3	66.3	46	44.9	0	1	112	0.00	30.209 
18:50	66.0	66.0	66.0	47	45.2	0	1	112	0.00	30.209 
18:55	65.6	65.6	65.6	47	44.8	0	1	112	0.00	30.209 
19:00	65.2	65.2	65.2	49	45.6	0	0	---	0.00	30.215 
19:05	64.7	64.7	64.7	50	45.6	0	0	---	0.00	30.215 
19:10	64.3	64.3	64.3	50	45.3	0	0	---	0.00	30.215 
19:15	63.9	63.9	63.9	51	45.4	0	0	---	0.00	30.216 
19:20	63.2	63.2	63.2	52	45.3	0	0	---	0.00	30.216 
19:25	62.6	62.6	62.6	53	45.2	0	0	---	0.00	30.216 
19:30	62.0	62.0	62.0	54	45.2	0	0	---	0.00	30.221 
19:35	61.5	61.5	61.5	55	45.2	0	0	---	0.00	30.221 
19:40	60.9	60.9	60.9	56	45.1	0	0	---	0.00	30.221 
19:45	60.4	60.4	60.4	57	45.1	0	0	---	0.00	30.226 
19:50	59.9	59.9	59.9	58	45.1	0	0	---	0.00	30.226 
19:55	59.5	59.5	59.5	58	44.7	0	0	---	0.00	30.226 
20:00	59.2	59.2	59.2	58	44.4	0	0	---	0.00	30.229 
20:05	58.7	58.7	58.7	59	44.4	0	0	---	0.00	30.229 
20:10	58.4	58.4	58.4	61	45.0	0	0	---	0.00	30.229 
20:15	58.0	58.0	58.0	62	45.1	0	0	---	0.00	30.230 
20:20	57.6	57.6	57.6	63	45.1	0	0	---	0.00	30.230 
20:25	57.3	57.3	57.3	63	44.8	0	0	---	0.00	30.230 
20:30	57.0	57.0	57.0	64	44.9	0	0	---	0.00	30.237 
20:35	56.7	56.7	56.7	65	45.1	0	0	---	0.00	30.237 
20:40	56.5	56.5	56.5	65	44.9	0	0	---	0.00	30.237 
20:45	56.2	56.2	56.2	66	45.0	0	0	---	0.00	30.241 
20:50	55.9	55.9	55.9	66	44.7	0	0	---	0.00	30.241 
20:55	55.6	55.6	55.6	67	44.8	0	0	---	0.00	30.241 
21:00	55.4	55.4	55.4	68	45.0	0	0	---	0.00	30.243 
21:05	55.1	55.1	55.1	69	45.1	0	0	---	0.00	30.243 
21:10	54.7	54.7	54.7	70	45.1	0	0	---	0.00	30.243 
21:15	54.4	54.4	54.4	71	45.2	0	0	---	0.00	30.239 
21:20	54.1	54.1	54.1	72	45.3	0	0	---	0.00	30.239 
21:25	53.6	53.6	53.6	72	44.8	0	0	---	0.00	30.239 
21:30	53.5	53.5	53.5	73	45.1	0	0	---	0.00	30.241 
21:35	53.2	53.2	53.2	73	44.8	0	0	---	0.00	30.241 
21:40	52.9	52.9	52.9	73	44.5	0	0	---	0.00	30.241 
21:45	52.8	52.8	52.8	73	44.4	0	0	---	0.00	30.245 
21:50	52.5	52.5	52.5	74	44.5	0	0	---	0.00	30.245 
21:55	52.3	52.3	52.3	76	45.0	0	0	---	0.00	30.245 
22:00	52.0	52.0	52.0	77	45.0	0	0	---	0.00	30.242 
22:05	51.7	51.7	51.7	78	45.1	0	0	---	0.00	30.242 
22:10	51.4	51.4	51.4	79	45.1	0	0	---	0.00	30.242 
22:15	51.3	51.3	51.3	79	45.0	0	0	---	0.00	30.237 
22:20	51.0	51.0	51.0	80	45.0	0	0	---	0.00	30.237 
22:25	50.7	50.7	50.7	80	44.8	0	0	---	0.00	30.237 
22:30	50.4	50.4	50.4	80	44.5	0	0	---	0.00	30.237 
22:35	50.2	50.2	50.2	81	44.6	0	0	---	0.00	30.237 
22:40	49.9	49.9	49.9	81	44.3	0	0	---	0.00	30.237 
22:45	49.6	49.6	49.6	81	44.0	0	0	---	0.00	30.240 
22:50	49.4	49.4	49.4	81	43.8	0	0	---	0.00	30.240 
22:55	49.2	49.2	49.2	82	43.9	0	0	---	0.00	30.240 
23:00	48.9	48.9	48.9	82	43.6	0	0	---	0.00	30.238 
23:05	48.8	48.8	48.8	83	43.9	0	0	---	0.00	30.238 
23:10	48.6	48.6	48.6	84	44.0	0	0	---	0.00	30.238 
23:15	48.5	48.5	48.5	84	43.9	0	0	---	0.00	30.234 
23:20	48.3	48.3	48.3	84	43.7	0	0	---	0.00	30.234 
23:25	48.2	48.2	48.2	85	43.9	0	0	---	0.00	30.234 
23:30	48.0	48.0	48.0	86	44.0	0	0	---	0.00	30.232 
23:35	47.9	47.9	47.9	87	44.2	0	0	---	0.00	30.232 
23:40	47.7	47.7	47.7	87	44.0	0	0	---	0.00	30.232 
23:45	47.4	47.4	47.4	87	43.7	0	0	---	0.00	30.231 
23:50	47.3	47.3	47.3	88	43.9	0	0	---	0.00	30.231 
23:55	47.1	47.1	47.1	88	43.7	0	0	---	0.00	30.231 

CoCoRaHS
IN-AL-39
A2 Web Hosting
Creative Commons License
GoDaddy
search engine by freefind advanced

loaded 2018-11-15 14:28:12 • last modified 2010-11-18 10:43:29
Privacy PolicyDisclaimer
• wx.awcolley.com is powered by PmWiki v.2002016 •
• all content (unless otherwise noted) © 2018 A W Colley